sensor_id;sensor_type;location;lat;lon;timestamp;temperature;humidity
21108;DHT22;10712;52.944;9.098;2023-11-22T00:01:30;3.80;93.20
21108;DHT22;10712;52.944;9.098;2023-11-22T00:03:56;3.80;93.30
21108;DHT22;10712;52.944;9.098;2023-11-22T00:06:23;3.80;93.20
21108;DHT22;10712;52.944;9.098;2023-11-22T00:08:49;3.90;93.10
21108;DHT22;10712;52.944;9.098;2023-11-22T00:11:14;3.90;93.00
21108;DHT22;10712;52.944;9.098;2023-11-22T00:13:40;3.80;93.00
21108;DHT22;10712;52.944;9.098;2023-11-22T00:16:06;3.90;93.00
21108;DHT22;10712;52.944;9.098;2023-11-22T00:18:35;3.90;92.90
21108;DHT22;10712;52.944;9.098;2023-11-22T00:21:03;3.80;92.80
21108;DHT22;10712;52.944;9.098;2023-11-22T00:23:29;3.80;92.80
21108;DHT22;10712;52.944;9.098;2023-11-22T00:25:55;3.80;92.70
21108;DHT22;10712;52.944;9.098;2023-11-22T00:28:24;3.80;92.50
21108;DHT22;10712;52.944;9.098;2023-11-22T00:30:50;3.80;92.40
21108;DHT22;10712;52.944;9.098;2023-11-22T00:33:16;3.80;92.30
21108;DHT22;10712;52.944;9.098;2023-11-22T00:35:43;3.70;92.20
21108;DHT22;10712;52.944;9.098;2023-11-22T00:38:09;3.70;92.00
21108;DHT22;10712;52.944;9.098;2023-11-22T00:40:35;3.60;91.80
21108;DHT22;10712;52.944;9.098;2023-11-22T00:43:01;3.50;91.70
21108;DHT22;10712;52.944;9.098;2023-11-22T00:45:26;3.50;91.80
21108;DHT22;10712;52.944;9.098;2023-11-22T00:47:52;3.50;91.90
21108;DHT22;10712;52.944;9.098;2023-11-22T00:50:18;3.40;91.90
21108;DHT22;10712;52.944;9.098;2023-11-22T00:52:47;3.40;91.80
21108;DHT22;10712;52.944;9.098;2023-11-22T00:55:15;3.40;91.70
21108;DHT22;10712;52.944;9.098;2023-11-22T00:57:41;3.30;91.50
21108;DHT22;10712;52.944;9.098;2023-11-22T01:00:07;3.30;91.40
21108;DHT22;10712;52.944;9.098;2023-11-22T01:02:35;3.20;91.40
21108;DHT22;10712;52.944;9.098;2023-11-22T01:05:08;3.20;91.40
21108;DHT22;10712;52.944;9.098;2023-11-22T01:07:38;3.20;91.40
21108;DHT22;10712;52.944;9.098;2023-11-22T01:10:04;3.20;91.40
21108;DHT22;10712;52.944;9.098;2023-11-22T01:12:31;3.20;91.20
21108;DHT22;10712;52.944;9.098;2023-11-22T01:14:58;3.10;91.20
21108;DHT22;10712;52.944;9.098;2023-11-22T01:17:24;3.10;91.20
21108;DHT22;10712;52.944;9.098;2023-11-22T01:19:50;3.10;91.20
21108;DHT22;10712;52.944;9.098;2023-11-22T01:22:16;3.10;91.20
21108;DHT22;10712;52.944;9.098;2023-11-22T01:24:43;3.10;91.20
21108;DHT22;10712;52.944;9.098;2023-11-22T01:27:08;3.10;91.20
21108;DHT22;10712;52.944;9.098;2023-11-22T01:29:34;3.10;91.10
21108;DHT22;10712;52.944;9.098;2023-11-22T01:32:00;3.10;91.10
21108;DHT22;10712;52.944;9.098;2023-11-22T01:34:26;3.00;90.90
21108;DHT22;10712;52.944;9.098;2023-11-22T01:36:52;3.00;90.80
21108;DHT22;10712;52.944;9.098;2023-11-22T01:39:18;2.90;90.50
21108;DHT22;10712;52.944;9.098;2023-11-22T01:41:46;2.90;90.50
21108;DHT22;10712;52.944;9.098;2023-11-22T01:44:15;2.90;90.40
21108;DHT22;10712;52.944;9.098;2023-11-22T01:46:42;2.80;90.50
21108;DHT22;10712;52.944;9.098;2023-11-22T01:49:10;2.80;90.50
21108;DHT22;10712;52.944;9.098;2023-11-22T01:51:40;2.70;90.50
21108;DHT22;10712;52.944;9.098;2023-11-22T01:54:07;2.70;90.50
21108;DHT22;10712;52.944;9.098;2023-11-22T01:56:36;2.70;90.40
21108;DHT22;10712;52.944;9.098;2023-11-22T01:59:04;2.60;90.60
21108;DHT22;10712;52.944;9.098;2023-11-22T02:01:31;2.60;90.70
21108;DHT22;10712;52.944;9.098;2023-11-22T02:03:57;2.60;90.70
21108;DHT22;10712;52.944;9.098;2023-11-22T02:06:24;2.60;90.60
21108;DHT22;10712;52.944;9.098;2023-11-22T02:08:50;2.50;90.30
21108;DHT22;10712;52.944;9.098;2023-11-22T02:11:19;2.50;90.30
21108;DHT22;10712;52.944;9.098;2023-11-22T02:13:50;2.50;90.40
21108;DHT22;10712;52.944;9.098;2023-11-22T02:16:19;2.50;90.40
21108;DHT22;10712;52.944;9.098;2023-11-22T02:18:49;2.50;90.60
21108;DHT22;10712;52.944;9.098;2023-11-22T02:21:18;2.50;90.80
21108;DHT22;10712;52.944;9.098;2023-11-22T02:23:44;2.50;90.90
21108;DHT22;10712;52.944;9.098;2023-11-22T02:26:10;2.50;90.80
21108;DHT22;10712;52.944;9.098;2023-11-22T02:28:36;2.50;90.40
21108;DHT22;10712;52.944;9.098;2023-11-22T02:31:03;2.40;90.30
21108;DHT22;10712;52.944;9.098;2023-11-22T02:33:29;2.40;90.50
21108;DHT22;10712;52.944;9.098;2023-11-22T02:35:55;2.30;90.80
21108;DHT22;10712;52.944;9.098;2023-11-22T02:38:21;2.40;90.90
21108;DHT22;10712;52.944;9.098;2023-11-22T02:40:46;2.40;90.90
21108;DHT22;10712;52.944;9.098;2023-11-22T02:43:14;2.40;90.90
21108;DHT22;10712;52.944;9.098;2023-11-22T02:45:40;2.40;90.80
21108;DHT22;10712;52.944;9.098;2023-11-22T02:48:06;2.40;90.80
21108;DHT22;10712;52.944;9.098;2023-11-22T02:50:35;2.30;90.60
21108;DHT22;10712;52.944;9.098;2023-11-22T02:53:05;2.30;90.60
21108;DHT22;10712;52.944;9.098;2023-11-22T02:55:30;2.30;90.60
21108;DHT22;10712;52.944;9.098;2023-11-22T02:57:56;2.30;90.50
21108;DHT22;10712;52.944;9.098;2023-11-22T03:00:22;2.30;90.30
21108;DHT22;10712;52.944;9.098;2023-11-22T03:02:49;2.20;90.30
21108;DHT22;10712;52.944;9.098;2023-11-22T03:05:22;2.20;90.40
21108;DHT22;10712;52.944;9.098;2023-11-22T03:07:48;2.20;90.50
21108;DHT22;10712;52.944;9.098;2023-11-22T03:10:16;2.20;90.50
21108;DHT22;10712;52.944;9.098;2023-11-22T03:12:46;2.20;90.50
21108;DHT22;10712;52.944;9.098;2023-11-22T03:15:13;2.20;90.50
21108;DHT22;10712;52.944;9.098;2023-11-22T03:17:39;2.20;90.40
21108;DHT22;10712;52.944;9.098;2023-11-22T03:20:05;2.20;90.30
21108;DHT22;10712;52.944;9.098;2023-11-22T03:22:36;2.10;90.30
21108;DHT22;10712;52.944;9.098;2023-11-22T03:25:03;2.10;90.40
21108;DHT22;10712;52.944;9.098;2023-11-22T03:27:30;2.10;90.50
21108;DHT22;10712;52.944;9.098;2023-11-22T03:29:56;2.10;90.50
21108;DHT22;10712;52.944;9.098;2023-11-22T03:32:22;2.10;90.50
21108;DHT22;10712;52.944;9.098;2023-11-22T03:34:47;2.10;90.50
21108;DHT22;10712;52.944;9.098;2023-11-22T03:37:13;2.10;90.50
21108;DHT22;10712;52.944;9.098;2023-11-22T03:39:39;2.00;90.50
21108;DHT22;10712;52.944;9.098;2023-11-22T03:42:08;2.00;90.30
21108;DHT22;10712;52.944;9.098;2023-11-22T03:44:33;2.00;90.30
21108;DHT22;10712;52.944;9.098;2023-11-22T03:46:59;2.00;90.60
21108;DHT22;10712;52.944;9.098;2023-11-22T03:49:25;2.00;90.60
21108;DHT22;10712;52.944;9.098;2023-11-22T03:51:51;1.90;90.70
21108;DHT22;10712;52.944;9.098;2023-11-22T03:54:16;1.90;90.70
21108;DHT22;10712;52.944;9.098;2023-11-22T03:56:42;2.00;90.70
21108;DHT22;10712;52.944;9.098;2023-11-22T03:59:09;2.00;90.70
21108;DHT22;10712;52.944;9.098;2023-11-22T04:01:35;1.90;90.70
21108;DHT22;10712;52.944;9.098;2023-11-22T04:04:01;1.90;90.70
21108;DHT22;10712;52.944;9.098;2023-11-22T04:06:26;1.90;90.70
21108;DHT22;10712;52.944;9.098;2023-11-22T04:08:53;1.90;90.80
21108;DHT22;10712;52.944;9.098;2023-11-22T04:11:19;1.90;90.80
21108;DHT22;10712;52.944;9.098;2023-11-22T04:13:45;2.00;90.70
21108;DHT22;10712;52.944;9.098;2023-11-22T04:16:10;1.90;90.70
21108;DHT22;10712;52.944;9.098;2023-11-22T04:18:40;1.90;90.70
21108;DHT22;10712;52.944;9.098;2023-11-22T04:21:07;1.90;90.70
21108;DHT22;10712;52.944;9.098;2023-11-22T04:23:34;1.90;90.60
21108;DHT22;10712;52.944;9.098;2023-11-22T04:26:02;1.90;90.60
21108;DHT22;10712;52.944;9.098;2023-11-22T04:28:29;1.90;90.50
21108;DHT22;10712;52.944;9.098;2023-11-22T04:30:56;1.90;90.50
21108;DHT22;10712;52.944;9.098;2023-11-22T04:33:23;1.80;90.30
21108;DHT22;10712;52.944;9.098;2023-11-22T04:35:49;1.80;90.30
21108;DHT22;10712;52.944;9.098;2023-11-22T04:38:16;1.80;90.30
21108;DHT22;10712;52.944;9.098;2023-11-22T04:40:43;1.80;90.30
21108;DHT22;10712;52.944;9.098;2023-11-22T04:43:10;1.80;90.30
21108;DHT22;10712;52.944;9.098;2023-11-22T04:45:35;1.70;90.30
21108;DHT22;10712;52.944;9.098;2023-11-22T04:48:03;1.70;90.00
21108;DHT22;10712;52.944;9.098;2023-11-22T04:50:29;1.60;89.80
21108;DHT22;10712;52.944;9.098;2023-11-22T04:52:56;1.60;90.00
21108;DHT22;10712;52.944;9.098;2023-11-22T04:55:22;1.60;90.30
21108;DHT22;10712;52.944;9.098;2023-11-22T04:57:50;1.60;90.40
21108;DHT22;10712;52.944;9.098;2023-11-22T05:00:17;1.60;90.40
21108;DHT22;10712;52.944;9.098;2023-11-22T05:02:43;1.60;90.20
21108;DHT22;10712;52.944;9.098;2023-11-22T05:05:09;1.50;90.10
21108;DHT22;10712;52.944;9.098;2023-11-22T05:07:38;1.50;90.20
21108;DHT22;10712;52.944;9.098;2023-11-22T05:10:05;1.50;90.20
21108;DHT22;10712;52.944;9.098;2023-11-22T05:12:31;1.50;90.30
21108;DHT22;10712;52.944;9.098;2023-11-22T05:14:58;1.50;90.30
21108;DHT22;10712;52.944;9.098;2023-11-22T05:17:24;1.50;90.20
21108;DHT22;10712;52.944;9.098;2023-11-22T05:19:50;1.50;90.20
21108;DHT22;10712;52.944;9.098;2023-11-22T05:22:16;1.50;90.30
21108;DHT22;10712;52.944;9.098;2023-11-22T05:24:42;1.40;90.20
21108;DHT22;10712;52.944;9.098;2023-11-22T05:27:08;1.40;90.00
21108;DHT22;10712;52.944;9.098;2023-11-22T05:29:35;1.40;89.80
21108;DHT22;10712;52.944;9.098;2023-11-22T05:32:01;1.40;89.70
21108;DHT22;10712;52.944;9.098;2023-11-22T05:34:28;1.30;90.10
21108;DHT22;10712;52.944;9.098;2023-11-22T05:36:54;1.30;90.20
21108;DHT22;10712;52.944;9.098;2023-11-22T05:39:20;1.30;90.20
21108;DHT22;10712;52.944;9.098;2023-11-22T05:41:48;1.30;90.20
21108;DHT22;10712;52.944;9.098;2023-11-22T05:44:14;1.30;90.20
21108;DHT22;10712;52.944;9.098;2023-11-22T05:46:40;1.30;90.10
21108;DHT22;10712;52.944;9.098;2023-11-22T05:49:06;1.30;90.10
21108;DHT22;10712;52.944;9.098;2023-11-22T05:51:32;1.30;90.00
21108;DHT22;10712;52.944;9.098;2023-11-22T05:53:59;1.30;90.00
21108;DHT22;10712;52.944;9.098;2023-11-22T05:56:26;1.30;89.90
21108;DHT22;10712;52.944;9.098;2023-11-22T05:58:52;1.30;89.90
21108;DHT22;10712;52.944;9.098;2023-11-22T06:01:17;1.20;89.90
21108;DHT22;10712;52.944;9.098;2023-11-22T06:03:43;1.20;89.90
21108;DHT22;10712;52.944;9.098;2023-11-22T06:06:09;1.20;89.60
21108;DHT22;10712;52.944;9.098;2023-11-22T06:08:35;1.20;89.60
21108;DHT22;10712;52.944;9.098;2023-11-22T06:11:01;1.20;89.60
21108;DHT22;10712;52.944;9.098;2023-11-22T06:13:28;1.20;89.60
21108;DHT22;10712;52.944;9.098;2023-11-22T06:15:54;1.20;89.50
21108;DHT22;10712;52.944;9.098;2023-11-22T06:18:20;1.20;89.60
21108;DHT22;10712;52.944;9.098;2023-11-22T06:20:46;1.10;89.50
21108;DHT22;10712;52.944;9.098;2023-11-22T06:23:15;1.10;89.60
21108;DHT22;10712;52.944;9.098;2023-11-22T06:25:41;1.10;89.70
21108;DHT22;10712;52.944;9.098;2023-11-22T06:28:07;1.10;89.60
21108;DHT22;10712;52.944;9.098;2023-11-22T06:30:33;1.10;89.60
21108;DHT22;10712;52.944;9.098;2023-11-22T06:33:00;1.10;89.70
21108;DHT22;10712;52.944;9.098;2023-11-22T06:35:27;1.10;89.50
21108;DHT22;10712;52.944;9.098;2023-11-22T06:37:53;1.00;89.50
21108;DHT22;10712;52.944;9.098;2023-11-22T06:40:19;1.00;89.60
21108;DHT22;10712;52.944;9.098;2023-11-22T06:42:48;1.00;89.60
21108;DHT22;10712;52.944;9.098;2023-11-22T06:45:14;1.00;89.80
21108;DHT22;10712;52.944;9.098;2023-11-22T06:47:40;1.00;89.80
21108;DHT22;10712;52.944;9.098;2023-11-22T06:50:07;1.00;89.90
21108;DHT22;10712;52.944;9.098;2023-11-22T06:52:40;1.00;90.00
21108;DHT22;10712;52.944;9.098;2023-11-22T06:55:08;1.00;90.10
21108;DHT22;10712;52.944;9.098;2023-11-22T06:57:38;1.00;90.00
21108;DHT22;10712;52.944;9.098;2023-11-22T07:00:05;1.00;90.00
21108;DHT22;10712;52.944;9.098;2023-11-22T07:02:35;1.00;89.70
21108;DHT22;10712;52.944;9.098;2023-11-22T07:05:02;0.90;89.70
21108;DHT22;10712;52.944;9.098;2023-11-22T07:07:29;0.90;90.10
21108;DHT22;10712;52.944;9.098;2023-11-22T07:09:55;0.90;90.30
21108;DHT22;10712;52.944;9.098;2023-11-22T07:12:25;0.90;90.40
21108;DHT22;10712;52.944;9.098;2023-11-22T07:14:52;1.00;90.50
21108;DHT22;10712;52.944;9.098;2023-11-22T07:17:18;1.00;90.60
21108;DHT22;10712;52.944;9.098;2023-11-22T07:19:44;1.00;90.80
21108;DHT22;10712;52.944;9.098;2023-11-22T07:22:16;1.10;90.90
21108;DHT22;10712;52.944;9.098;2023-11-22T07:24:43;1.10;90.90
21108;DHT22;10712;52.944;9.098;2023-11-22T07:27:17;1.10;90.90
21108;DHT22;10712;52.944;9.098;2023-11-22T07:29:44;1.10;91.00
21108;DHT22;10712;52.944;9.098;2023-11-22T07:32:11;1.10;91.00
21108;DHT22;10712;52.944;9.098;2023-11-22T07:34:38;1.20;90.90
21108;DHT22;10712;52.944;9.098;2023-11-22T07:37:07;1.20;90.90
21108;DHT22;10712;52.944;9.098;2023-11-22T07:39:36;1.20;91.00
21108;DHT22;10712;52.944;9.098;2023-11-22T07:42:04;1.20;91.00
21108;DHT22;10712;52.944;9.098;2023-11-22T07:44:35;1.20;91.10
21108;DHT22;10712;52.944;9.098;2023-11-22T07:47:03;1.20;91.20
21108;DHT22;10712;52.944;9.098;2023-11-22T07:49:34;1.30;91.20
21108;DHT22;10712;52.944;9.098;2023-11-22T07:52:03;1.30;91.20
21108;DHT22;10712;52.944;9.098;2023-11-22T07:54:31;1.30;91.30
21108;DHT22;10712;52.944;9.098;2023-11-22T07:56:57;1.30;91.10
21108;DHT22;10712;52.944;9.098;2023-11-22T07:59:23;1.30;91.10
21108;DHT22;10712;52.944;9.098;2023-11-22T08:01:49;1.30;91.20
21108;DHT22;10712;52.944;9.098;2023-11-22T08:04:15;1.30;91.40
21108;DHT22;10712;52.944;9.098;2023-11-22T08:06:43;1.30;91.60
21108;DHT22;10712;52.944;9.098;2023-11-22T08:09:09;1.40;91.50
21108;DHT22;10712;52.944;9.098;2023-11-22T08:11:36;1.40;91.60
21108;DHT22;10712;52.944;9.098;2023-11-22T08:14:02;1.40;91.70
21108;DHT22;10712;52.944;9.098;2023-11-22T08:16:28;1.40;91.80
21108;DHT22;10712;52.944;9.098;2023-11-22T08:18:54;1.50;91.80
21108;DHT22;10712;52.944;9.098;2023-11-22T08:21:23;1.50;91.70
21108;DHT22;10712;52.944;9.098;2023-11-22T08:23:49;1.50;91.70
21108;DHT22;10712;52.944;9.098;2023-11-22T08:26:15;1.50;91.80
21108;DHT22;10712;52.944;9.098;2023-11-22T08:28:41;1.60;91.90
21108;DHT22;10712;52.944;9.098;2023-11-22T08:31:07;1.60;92.00
21108;DHT22;10712;52.944;9.098;2023-11-22T08:33:37;1.60;92.00
21108;DHT22;10712;52.944;9.098;2023-11-22T08:36:07;1.60;91.90
21108;DHT22;10712;52.944;9.098;2023-11-22T08:38:35;1.60;91.90
21108;DHT22;10712;52.944;9.098;2023-11-22T08:41:03;1.60;92.10
21108;DHT22;10712;52.944;9.098;2023-11-22T08:43:31;1.70;92.30
21108;DHT22;10712;52.944;9.098;2023-11-22T08:45:58;1.70;92.30
21108;DHT22;10712;52.944;9.098;2023-11-22T08:48:24;1.80;92.30
21108;DHT22;10712;52.944;9.098;2023-11-22T08:50:51;1.80;92.30
21108;DHT22;10712;52.944;9.098;2023-11-22T08:53:19;1.80;92.20
21108;DHT22;10712;52.944;9.098;2023-11-22T08:55:46;1.80;92.20
21108;DHT22;10712;52.944;9.098;2023-11-22T08:58:13;1.80;92.20
21108;DHT22;10712;52.944;9.098;2023-11-22T09:00:39;1.80;92.40
21108;DHT22;10712;52.944;9.098;2023-11-22T09:03:09;1.80;92.60
21108;DHT22;10712;52.944;9.098;2023-11-22T09:05:41;1.80;92.60
21108;DHT22;10712;52.944;9.098;2023-11-22T09:08:08;1.90;92.50
21108;DHT22;10712;52.944;9.098;2023-11-22T09:10:41;1.90;92.50
21108;DHT22;10712;52.944;9.098;2023-11-22T09:13:08;1.90;92.40
21108;DHT22;10712;52.944;9.098;2023-11-22T09:15:35;1.90;92.50
21108;DHT22;10712;52.944;9.098;2023-11-22T09:18:01;1.90;92.70
21108;DHT22;10712;52.944;9.098;2023-11-22T09:20:28;1.90;92.70
21108;DHT22;10712;52.944;9.098;2023-11-22T09:22:54;1.90;92.70
21108;DHT22;10712;52.944;9.098;2023-11-22T09:25:21;1.90;93.10
21108;DHT22;10712;52.944;9.098;2023-11-22T09:27:52;2.00;93.30
21108;DHT22;10712;52.944;9.098;2023-11-22T09:30:28;2.00;93.30
21108;DHT22;10712;52.944;9.098;2023-11-22T09:33:15;2.10;93.50
21108;DHT22;10712;52.944;9.098;2023-11-22T09:35:43;2.20;93.60
21108;DHT22;10712;52.944;9.098;2023-11-22T09:38:10;2.20;93.60
21108;DHT22;10712;52.944;9.098;2023-11-22T09:40:47;2.30;93.60
21108;DHT22;10712;52.944;9.098;2023-11-22T09:43:15;2.30;93.70
21108;DHT22;10712;52.944;9.098;2023-11-22T09:45:44;2.30;93.70
21108;DHT22;10712;52.944;9.098;2023-11-22T09:48:18;2.40;93.80
21108;DHT22;10712;52.944;9.098;2023-11-22T09:53:54;2.40;93.70
21108;DHT22;10712;52.944;9.098;2023-11-22T09:56:23;2.50;93.60
21108;DHT22;10712;52.944;9.098;2023-11-22T09:58:57;2.50;93.40
21108;DHT22;10712;52.944;9.098;2023-11-22T10:01:27;2.50;93.40
21108;DHT22;10712;52.944;9.098;2023-11-22T10:03:54;2.50;93.40
21108;DHT22;10712;52.944;9.098;2023-11-22T10:06:20;2.50;93.40
21108;DHT22;10712;52.944;9.098;2023-11-22T10:08:46;2.50;93.60
21108;DHT22;10712;52.944;9.098;2023-11-22T10:11:15;2.60;93.60
21108;DHT22;10712;52.944;9.098;2023-11-22T10:13:44;2.60;93.70
21108;DHT22;10712;52.944;9.098;2023-11-22T10:16:13;2.60;93.60
21108;DHT22;10712;52.944;9.098;2023-11-22T10:18:44;2.70;93.60
21108;DHT22;10712;52.944;9.098;2023-11-22T10:21:22;2.70;93.70
21108;DHT22;10712;52.944;9.098;2023-11-22T10:23:50;2.70;93.60
21108;DHT22;10712;52.944;9.098;2023-11-22T10:26:19;2.70;93.50
21108;DHT22;10712;52.944;9.098;2023-11-22T10:28:45;2.70;93.50
21108;DHT22;10712;52.944;9.098;2023-11-22T10:31:11;2.70;93.60
21108;DHT22;10712;52.944;9.098;2023-11-22T10:33:40;2.80;93.80
21108;DHT22;10712;52.944;9.098;2023-11-22T10:36:09;2.80;93.90
21108;DHT22;10712;52.944;9.098;2023-11-22T10:38:35;2.90;93.90
21108;DHT22;10712;52.944;9.098;2023-11-22T10:41:05;2.90;93.80
21108;DHT22;10712;52.944;9.098;2023-11-22T10:43:34;3.00;93.90
21108;DHT22;10712;52.944;9.098;2023-11-22T10:46:03;3.00;93.90
21108;DHT22;10712;52.944;9.098;2023-11-22T10:48:35;3.10;93.80
21108;DHT22;10712;52.944;9.098;2023-11-22T10:51:03;3.10;93.70
21108;DHT22;10712;52.944;9.098;2023-11-22T10:53:35;3.10;93.80
21108;DHT22;10712;52.944;9.098;2023-11-22T10:56:14;3.20;93.70
21108;DHT22;10712;52.944;9.098;2023-11-22T10:58:51;3.20;93.70
21108;DHT22;10712;52.944;9.098;2023-11-22T11:01:22;3.30;93.70
21108;DHT22;10712;52.944;9.098;2023-11-22T11:04:09;3.30;93.70
21108;DHT22;10712;52.944;9.098;2023-11-22T11:06:44;3.30;93.60
21108;DHT22;10712;52.944;9.098;2023-11-22T11:09:18;3.40;93.60
21108;DHT22;10712;52.944;9.098;2023-11-22T11:11:47;3.40;93.60
21108;DHT22;10712;52.944;9.098;2023-11-22T11:14:13;3.50;93.60
21108;DHT22;10712;52.944;9.098;2023-11-22T11:16:42;3.50;93.60
21108;DHT22;10712;52.944;9.098;2023-11-22T11:19:14;3.50;93.50
21108;DHT22;10712;52.944;9.098;2023-11-22T11:21:40;3.60;93.50
21108;DHT22;10712;52.944;9.098;2023-11-22T11:24:06;3.60;93.50
21108;DHT22;10712;52.944;9.098;2023-11-22T11:26:33;3.60;93.50
21108;DHT22;10712;52.944;9.098;2023-11-22T11:29:03;3.70;93.40
21108;DHT22;10712;52.944;9.098;2023-11-22T11:31:34;3.70;93.40
21108;DHT22;10712;52.944;9.098;2023-11-22T11:34:07;3.80;93.40
21108;DHT22;10712;52.944;9.098;2023-11-22T11:36:33;3.80;93.40
21108;DHT22;10712;52.944;9.098;2023-11-22T11:39:06;3.80;93.30
21108;DHT22;10712;52.944;9.098;2023-11-22T11:41:41;3.80;93.20
21108;DHT22;10712;52.944;9.098;2023-11-22T11:44:08;3.90;93.10
21108;DHT22;10712;52.944;9.098;2023-11-22T11:46:39;3.90;93.10
21108;DHT22;10712;52.944;9.098;2023-11-22T11:49:09;3.90;93.00
21108;DHT22;10712;52.944;9.098;2023-11-22T11:51:39;3.90;93.00
21108;DHT22;10712;52.944;9.098;2023-11-22T11:54:05;4.00;92.80
21108;DHT22;10712;52.944;9.098;2023-11-22T11:56:35;4.00;92.70
21108;DHT22;10712;52.944;9.098;2023-11-22T11:59:06;4.00;92.50
21108;DHT22;10712;52.944;9.098;2023-11-22T12:01:39;4.00;92.50
21108;DHT22;10712;52.944;9.098;2023-11-22T12:04:07;4.10;92.50
21108;DHT22;10712;52.944;9.098;2023-11-22T12:06:52;4.10;92.30
21108;DHT22;10712;52.944;9.098;2023-11-22T12:09:24;4.10;91.90
21108;DHT22;10712;52.944;9.098;2023-11-22T12:12:13;4.10;91.80
21108;DHT22;10712;52.944;9.098;2023-11-22T12:14:44;4.20;91.80
21108;DHT22;10712;52.944;9.098;2023-11-22T12:17:13;4.10;91.60
21108;DHT22;10712;52.944;9.098;2023-11-22T12:19:45;4.10;91.40
21108;DHT22;10712;52.944;9.098;2023-11-22T12:22:22;4.20;91.40
21108;DHT22;10712;52.944;9.098;2023-11-22T12:24:51;4.20;91.20
21108;DHT22;10712;52.944;9.098;2023-11-22T12:27:17;4.20;91.20
21108;DHT22;10712;52.944;9.098;2023-11-22T12:29:46;4.20;91.20
21108;DHT22;10712;52.944;9.098;2023-11-22T12:32:12;4.30;91.30
21108;DHT22;10712;52.944;9.098;2023-11-22T12:34:40;4.30;91.20
21108;DHT22;10712;52.944;9.098;2023-11-22T12:37:06;4.30;90.40
21108;DHT22;10712;52.944;9.098;2023-11-22T12:39:36;4.30;89.90
21108;DHT22;10712;52.944;9.098;2023-11-22T12:42:03;4.20;89.30
21108;DHT22;10712;52.944;9.098;2023-11-22T12:44:29;4.20;89.20
21108;DHT22;10712;52.944;9.098;2023-11-22T12:46:55;4.20;89.10
21108;DHT22;10712;52.944;9.098;2023-11-22T12:49:26;4.20;88.50
21108;DHT22;10712;52.944;9.098;2023-11-22T12:51:54;4.20;88.20
21108;DHT22;10712;52.944;9.098;2023-11-22T12:54:22;4.20;87.80
21108;DHT22;10712;52.944;9.098;2023-11-22T12:56:52;4.20;87.60
21108;DHT22;10712;52.944;9.098;2023-11-22T12:59:28;4.20;87.60
21108;DHT22;10712;52.944;9.098;2023-11-22T13:01:56;4.20;87.70
21108;DHT22;10712;52.944;9.098;2023-11-22T13:04:23;4.20;87.80
21108;DHT22;10712;52.944;9.098;2023-11-22T13:06:49;4.20;87.70
21108;DHT22;10712;52.944;9.098;2023-11-22T13:09:15;4.20;87.50
21108;DHT22;10712;52.944;9.098;2023-11-22T13:11:42;4.20;87.30
21108;DHT22;10712;52.944;9.098;2023-11-22T13:14:11;4.30;87.30
21108;DHT22;10712;52.944;9.098;2023-11-22T13:16:43;4.30;87.30
21108;DHT22;10712;52.944;9.098;2023-11-22T13:19:10;4.30;87.30
21108;DHT22;10712;52.944;9.098;2023-11-22T13:21:36;4.30;87.50
21108;DHT22;10712;52.944;9.098;2023-11-22T13:24:03;4.40;87.50
21108;DHT22;10712;52.944;9.098;2023-11-22T13:26:31;4.40;87.50
21108;DHT22;10712;52.944;9.098;2023-11-22T13:28:57;4.40;87.50
21108;DHT22;10712;52.944;9.098;2023-11-22T13:31:23;4.40;87.60
21108;DHT22;10712;52.944;9.098;2023-11-22T13:33:49;4.40;87.60
21108;DHT22;10712;52.944;9.098;2023-11-22T13:36:16;4.50;87.60
21108;DHT22;10712;52.944;9.098;2023-11-22T13:38:42;4.50;87.60
21108;DHT22;10712;52.944;9.098;2023-11-22T13:41:08;4.50;87.60
21108;DHT22;10712;52.944;9.098;2023-11-22T13:43:34;4.50;87.50
21108;DHT22;10712;52.944;9.098;2023-11-22T13:46:00;4.40;87.60
21108;DHT22;10712;52.944;9.098;2023-11-22T13:48:26;4.50;87.70
21108;DHT22;10712;52.944;9.098;2023-11-22T13:50:52;4.50;87.70
21108;DHT22;10712;52.944;9.098;2023-11-22T13:53:18;4.50;87.80
21108;DHT22;10712;52.944;9.098;2023-11-22T13:55:48;4.50;87.80
21108;DHT22;10712;52.944;9.098;2023-11-22T13:58:16;4.50;88.00
21108;DHT22;10712;52.944;9.098;2023-11-22T14:00:41;4.50;88.00
21108;DHT22;10712;52.944;9.098;2023-11-22T14:03:08;4.50;88.00
21108;DHT22;10712;52.944;9.098;2023-11-22T14:05:37;4.50;88.00
21108;DHT22;10712;52.944;9.098;2023-11-22T14:08:07;4.50;88.00
21108;DHT22;10712;52.944;9.098;2023-11-22T14:10:33;4.50;88.20
21108;DHT22;10712;52.944;9.098;2023-11-22T14:12:59;4.50;88.30
21108;DHT22;10712;52.944;9.098;2023-11-22T14:15:26;4.50;88.40
21108;DHT22;10712;52.944;9.098;2023-11-22T14:17:54;4.50;88.40
21108;DHT22;10712;52.944;9.098;2023-11-22T14:20:20;4.50;88.50
21108;DHT22;10712;52.944;9.098;2023-11-22T14:22:47;4.50;88.50
21108;DHT22;10712;52.944;9.098;2023-11-22T14:25:13;4.40;88.60
21108;DHT22;10712;52.944;9.098;2023-11-22T14:27:45;4.40;88.60
21108;DHT22;10712;52.944;9.098;2023-11-22T14:30:13;4.40;88.70
21108;DHT22;10712;52.944;9.098;2023-11-22T14:32:40;4.40;88.50
21108;DHT22;10712;52.944;9.098;2023-11-22T14:35:08;4.40;88.50
21108;DHT22;10712;52.944;9.098;2023-11-22T14:37:35;4.30;88.60
21108;DHT22;10712;52.944;9.098;2023-11-22T14:40:03;4.30;88.70
21108;DHT22;10712;52.944;9.098;2023-11-22T14:42:42;4.30;88.70
21108;DHT22;10712;52.944;9.098;2023-11-22T14:45:10;4.30;88.80
21108;DHT22;10712;52.944;9.098;2023-11-22T14:47:39;4.30;88.80
21108;DHT22;10712;52.944;9.098;2023-11-22T14:50:08;4.30;88.90
21108;DHT22;10712;52.944;9.098;2023-11-22T14:52:38;4.30;88.90
21108;DHT22;10712;52.944;9.098;2023-11-22T14:55:04;4.30;88.90
21108;DHT22;10712;52.944;9.098;2023-11-22T14:57:31;4.30;88.60
21108;DHT22;10712;52.944;9.098;2023-11-22T14:59:57;4.20;88.50
21108;DHT22;10712;52.944;9.098;2023-11-22T15:02:23;4.20;88.30
21108;DHT22;10712;52.944;9.098;2023-11-22T15:04:49;4.20;88.20
21108;DHT22;10712;52.944;9.098;2023-11-22T15:07:14;4.10;88.30
21108;DHT22;10712;52.944;9.098;2023-11-22T15:09:41;4.10;88.10
21108;DHT22;10712;52.944;9.098;2023-11-22T15:12:07;4.10;88.10
21108;DHT22;10712;52.944;9.098;2023-11-22T15:14:33;4.10;87.80
21108;DHT22;10712;52.944;9.098;2023-11-22T15:17:00;4.10;87.70
21108;DHT22;10712;52.944;9.098;2023-11-22T15:19:26;4.10;87.60
21108;DHT22;10712;52.944;9.098;2023-11-22T15:21:53;4.10;87.50
21108;DHT22;10712;52.944;9.098;2023-11-22T15:24:20;4.10;87.20
21108;DHT22;10712;52.944;9.098;2023-11-22T15:26:46;4.10;87.20
21108;DHT22;10712;52.944;9.098;2023-11-22T15:29:12;4.10;87.10
21108;DHT22;10712;52.944;9.098;2023-11-22T15:31:41;4.10;87.00
21108;DHT22;10712;52.944;9.098;2023-11-22T15:34:09;4.10;87.00
21108;DHT22;10712;52.944;9.098;2023-11-22T15:36:35;4.10;87.10
21108;DHT22;10712;52.944;9.098;2023-11-22T15:39:01;4.10;87.10
21108;DHT22;10712;52.944;9.098;2023-11-22T15:41:38;4.10;87.10
21108;DHT22;10712;52.944;9.098;2023-11-22T15:44:15;4.10;87.20
21108;DHT22;10712;52.944;9.098;2023-11-22T15:46:41;4.10;87.30
21108;DHT22;10712;52.944;9.098;2023-11-22T15:49:08;4.10;87.30
21108;DHT22;10712;52.944;9.098;2023-11-22T15:51:39;4.10;87.30